sensor_id;sensor_type;location;lat;lon;timestamp;pressure;altitude;pressure_sealevel;temperature
76583;BMP280;65462;52.148;7.940;2023-02-28T00:02:15;102256.56;;;1.17
76583;BMP280;65462;52.148;7.940;2023-02-28T00:04:42;102259.78;;;1.19
76583;BMP280;65462;52.148;7.940;2023-02-28T00:07:08;102258.97;;;1.19
76583;BMP280;65462;52.148;7.940;2023-02-28T00:09:33;102258.97;;;1.19
76583;BMP280;65462;52.148;7.940;2023-02-28T00:11:58;102259.97;;;1.18
76583;BMP280;65462;52.148;7.940;2023-02-28T00:14:23;102260.97;;;1.17
76583;BMP280;65462;52.148;7.940;2023-02-28T00:16:49;102257.22;;;1.13
76583;BMP280;65462;52.148;7.940;2023-02-28T00:19:14;102268.63;;;1.12
76583;BMP280;65462;52.148;7.940;2023-02-28T00:21:39;102260.44;;;1.08
76583;BMP280;65462;52.148;7.940;2023-02-28T00:24:06;102253.03;;;1.05
76583;BMP280;65462;52.148;7.940;2023-02-28T00:26:32;102261.66;;;1.05
76583;BMP280;65462;52.148;7.940;2023-02-28T00:28:57;102244.69;;;0.96
76583;BMP280;65462;52.148;7.940;2023-02-28T00:31:23;102257.84;;;1.01
76583;BMP280;65462;52.148;7.940;2023-02-28T00:33:48;102260.88;;;0.98
76583;BMP280;65462;52.148;7.940;2023-02-28T00:36:13;102261.88;;;0.97
76583;BMP280;65462;52.148;7.940;2023-02-28T00:38:40;102261.88;;;0.97
76583;BMP280;65462;52.148;7.940;2023-02-28T00:41:06;102258.69;;;0.95
76583;BMP280;65462;52.148;7.940;2023-02-28T00:43:36;102251.88;;;0.94
76583;BMP280;65462;52.148;7.940;2023-02-28T00:46:03;102252.09;;;0.93
76583;BMP280;65462;52.148;7.940;2023-02-28T00:48:28;102250.50;;;0.92
76583;BMP280;65462;52.148;7.940;2023-02-28T00:50:53;102239.69;;;0.88
76583;BMP280;65462;52.148;7.940;2023-02-28T00:53:19;102253.31;;;0.90
76583;BMP280;65462;52.148;7.940;2023-02-28T00:55:45;102243.50;;;0.86
76583;BMP280;65462;52.148;7.940;2023-02-28T00:58:10;102242.75;;;0.79
76583;BMP280;65462;52.148;7.940;2023-02-28T01:00:35;102236.94;;;0.83
76583;BMP280;65462;52.148;7.940;2023-02-28T01:03:00;102248.50;;;0.87
76583;BMP280;65462;52.148;7.940;2023-02-28T01:05:26;102247.13;;;0.78
76583;BMP280;65462;52.148;7.940;2023-02-28T01:07:51;102240.34;;;0.77
76583;BMP280;65462;52.148;7.940;2023-02-28T01:10:16;102240.78;;;0.74
76583;BMP280;65462;52.148;7.940;2023-02-28T01:12:41;102235.34;;;0.76
76583;BMP280;65462;52.148;7.940;2023-02-28T01:15:10;102241.16;;;0.71
76583;BMP280;65462;52.148;7.940;2023-02-28T01:17:36;102247.56;;;0.69
76583;BMP280;65462;52.148;7.940;2023-02-28T01:20:01;102234.19;;;0.59
76583;BMP280;65462;52.148;7.940;2023-02-28T01:22:28;102241.78;;;0.67
76583;BMP280;65462;52.148;7.940;2023-02-28T01:24:53;102241.41;;;0.63
76583;BMP280;65462;52.148;7.940;2023-02-28T01:27:19;102255.19;;;0.64
76583;BMP280;65462;52.148;7.940;2023-02-28T01:29:44;102234.84;;;0.54
76583;BMP280;65462;52.148;7.940;2023-02-28T01:32:10;102241.00;;;0.60
76583;BMP280;65462;52.148;7.940;2023-02-28T01:34:35;102233.03;;;0.54
76583;BMP280;65462;52.148;7.940;2023-02-28T01:37:00;102228.84;;;0.53
76583;BMP280;65462;52.148;7.940;2023-02-28T01:39:26;102237.03;;;0.57
76583;BMP280;65462;52.148;7.940;2023-02-28T01:41:51;102227.84;;;0.48
76583;BMP280;65462;52.148;7.940;2023-02-28T01:47:21;102232.66;;;0.51
76583;BMP280;65462;52.148;7.940;2023-02-28T01:49:48;102236.66;;;0.47
76583;BMP280;65462;52.148;7.940;2023-02-28T01:52:14;102243.44;;;0.48
76583;BMP280;65462;52.148;7.940;2023-02-28T01:54:45;102244.44;;;0.47
76583;BMP280;65462;52.148;7.940;2023-02-28T01:57:15;102236.47;;;0.42
76583;BMP280;65462;52.148;7.940;2023-02-28T02:00:03;102241.69;;;0.42
76583;BMP280;65462;52.148;7.940;2023-02-28T02:02:30;102226.88;;;0.36
76583;BMP280;65462;52.148;7.940;2023-02-28T02:05:09;102244.66;;;0.39
76583;BMP280;65462;52.148;7.940;2023-02-28T02:07:37;102243.66;;;0.40
76583;BMP280;65462;52.148;7.940;2023-02-28T02:10:15;102240.88;;;0.35
76583;BMP280;65462;52.148;7.940;2023-02-28T02:15:24;102219.19;;;0.10
76583;BMP280;65462;52.148;7.940;2023-02-28T02:17:54;102226.34;;;0.14
76583;BMP280;65462;52.148;7.940;2023-02-28T02:23:33;102228.75;;;0.16
76583;BMP280;65462;52.148;7.940;2023-02-28T02:29:15;102208.97;;;0.02
76583;BMP280;65462;52.148;7.940;2023-02-28T02:32:03;102228.94;;;0.08
76583;BMP280;65462;52.148;7.940;2023-02-28T02:34:36;102228.38;;;0.06
76583;BMP280;65462;52.148;7.940;2023-02-28T02:40:00;102223.97;;;-0.01
76583;BMP280;65462;52.148;7.940;2023-02-28T02:42:42;102211.19;;;-0.15
76583;BMP280;65462;52.148;7.940;2023-02-28T02:45:14;102226.59;;;-0.07
76583;BMP280;65462;52.148;7.940;2023-02-28T02:47:42;102227.56;;;-0.08
76583;BMP280;65462;52.148;7.940;2023-02-28T02:50:14;102217.41;;;-0.16
76583;BMP280;65462;52.148;7.940;2023-02-28T02:52:45;102237.78;;;-0.13
76583;BMP280;65462;52.148;7.940;2023-02-28T02:55:14;102240.16;;;-0.12
76583;BMP280;65462;52.148;7.940;2023-02-28T02:57:47;102231.38;;;-0.24
76583;BMP280;65462;52.148;7.940;2023-02-28T03:00:16;102244.53;;;-0.19
76583;BMP280;65462;52.148;7.940;2023-02-28T03:02:44;102243.38;;;-0.16
76583;BMP280;65462;52.148;7.940;2023-02-28T03:05:19;102243.38;;;-0.23
76583;BMP280;65462;52.148;7.940;2023-02-28T03:07:45;102238.16;;;-0.29
76583;BMP280;65462;52.148;7.940;2023-02-28T03:10:39;102241.94;;;-0.25
76583;BMP280;65462;52.148;7.940;2023-02-28T03:13:15;102256.53;;;-0.31
76583;BMP280;65462;52.148;7.940;2023-02-28T03:15:58;102237.75;;;-0.33
76583;BMP280;65462;52.148;7.940;2023-02-28T03:18:32;102235.53;;;-0.36
76583;BMP280;65462;52.148;7.940;2023-02-28T03:24:11;102240.09;;;-0.38
76583;BMP280;65462;52.148;7.940;2023-02-28T03:26:45;102240.31;;;-0.46
76583;BMP280;65462;52.148;7.940;2023-02-28T03:31:48;102232.91;;;-0.56
76583;BMP280;65462;52.148;7.940;2023-02-28T03:34:29;102246.50;;;-0.54
76583;BMP280;65462;52.148;7.940;2023-02-28T03:36:58;102255.06;;;-0.53
76583;BMP280;65462;52.148;7.940;2023-02-28T03:39:34;102246.69;;;-0.55
76583;BMP280;65462;52.148;7.940;2023-02-28T03:42:04;102248.09;;;-0.59
76583;BMP280;65462;52.148;7.940;2023-02-28T03:44:35;102250.69;;;-0.59
76583;BMP280;65462;52.148;7.940;2023-02-28T03:47:07;102230.28;;;-0.75
76583;BMP280;65462;52.148;7.940;2023-02-28T03:49:43;102236.47;;;-0.70
76583;BMP280;65462;52.148;7.940;2023-02-28T03:52:10;102244.47;;;-0.71
76583;BMP280;65462;52.148;7.940;2023-02-28T03:54:42;102237.25;;;-0.82
76583;BMP280;65462;52.148;7.940;2023-02-28T03:57:27;102245.22;;;-0.77
76583;BMP280;65462;52.148;7.940;2023-02-28T04:00:03;102235.25;;;-0.80
76583;BMP280;65462;52.148;7.940;2023-02-28T04:02:31;102235.63;;;-0.83
76583;BMP280;65462;52.148;7.940;2023-02-28T04:04:56;102227.44;;;-0.87
76583;BMP280;65462;52.148;7.940;2023-02-28T04:07:21;102237.41;;;-0.90
76583;BMP280;65462;52.148;7.940;2023-02-28T04:09:47;102242.81;;;-0.85
76583;BMP280;65462;52.148;7.940;2023-02-28T04:12:12;102242.22;;;-0.87
76583;BMP280;65462;52.148;7.940;2023-02-28T04:14:37;102239.66;;;-0.87
76583;BMP280;65462;52.148;7.940;2023-02-28T04:17:02;102237.81;;;-0.93
76583;BMP280;65462;52.148;7.940;2023-02-28T04:19:28;102247.59;;;-0.95
76583;BMP280;65462;52.148;7.940;2023-02-28T04:21:53;102248.97;;;-0.99
76583;BMP280;65462;52.148;7.940;2023-02-28T04:24:24;102241.97;;;-1.06
76583;BMP280;65462;52.148;7.940;2023-02-28T04:26:52;102248.72;;;-1.11
76583;BMP280;65462;52.148;7.940;2023-02-28T04:29:31;102241.56;;;-1.02
76583;BMP280;65462;52.148;7.940;2023-02-28T04:32:00;102238.56;;;-1.06
76583;BMP280;65462;52.148;7.940;2023-02-28T04:34:27;102248.13;;;-1.07
76583;BMP280;65462;52.148;7.940;2023-02-28T04:36:54;102234.94;;;-1.18
76583;BMP280;65462;52.148;7.940;2023-02-28T04:39:23;102216.28;;;-1.35
76583;BMP280;65462;52.148;7.940;2023-02-28T04:41:49;102230.94;;;-1.21
76583;BMP280;65462;52.148;7.940;2023-02-28T04:44:15;102251.28;;;-1.18
76583;BMP280;65462;52.148;7.940;2023-02-28T04:46:41;102243.47;;;-1.24
76583;BMP280;65462;52.148;7.940;2023-02-28T04:49:08;102244.69;;;-1.27
76583;BMP280;65462;52.148;7.940;2023-02-28T04:51:33;102245.25;;;-1.31
76583;BMP280;65462;52.148;7.940;2023-02-28T04:53:58;102233.41;;;-1.40
76583;BMP280;65462;52.148;7.940;2023-02-28T04:56:24;102240.97;;;-1.39
76583;BMP280;65462;52.148;7.940;2023-02-28T04:58:49;102245.56;;;-1.41
76583;BMP280;65462;52.148;7.940;2023-02-28T05:01:24;102250.69;;;-1.47
76583;BMP280;65462;52.148;7.940;2023-02-28T05:03:50;102243.31;;;-1.50
76583;BMP280;65462;52.148;7.940;2023-02-28T05:06:16;102238.91;;;-1.57
76583;BMP280;65462;52.148;7.940;2023-02-28T05:08:42;102249.88;;;-1.55
76583;BMP280;65462;52.148;7.940;2023-02-28T05:11:14;102257.25;;;-1.51
76583;BMP280;65462;52.148;7.940;2023-02-28T05:13:40;102237.50;;;-1.59
76583;BMP280;65462;52.148;7.940;2023-02-28T05:16:05;102243.75;;;-1.47
76583;BMP280;65462;52.148;7.940;2023-02-28T05:18:31;102256.09;;;-1.49
76583;BMP280;65462;52.148;7.940;2023-02-28T05:20:56;102244.63;;;-1.61
76583;BMP280;65462;52.148;7.940;2023-02-28T05:23:22;102249.03;;;-1.62
76583;BMP280;65462;52.148;7.940;2023-02-28T05:25:47;102257.69;;;-1.48
76583;BMP280;65462;52.148;7.940;2023-02-28T05:28:13;102264.28;;;-1.45
76583;BMP280;65462;52.148;7.940;2023-02-28T05:30:38;102256.69;;;-1.47
76583;BMP280;65462;52.148;7.940;2023-02-28T05:33:03;102257.06;;;-1.50
76583;BMP280;65462;52.148;7.940;2023-02-28T05:35:28;102260.22;;;-1.55
76583;BMP280;65462;52.148;7.940;2023-02-28T05:37:54;102257.22;;;-1.58
76583;BMP280;65462;52.148;7.940;2023-02-28T05:40:19;102261.19;;;-1.62
76583;BMP280;65462;52.148;7.940;2023-02-28T05:42:46;102271.31;;;-1.67
76583;BMP280;65462;52.148;7.940;2023-02-28T05:45:11;102261.09;;;-1.75
76583;BMP280;65462;52.148;7.940;2023-02-28T05:47:36;102271.84;;;-1.78
76583;BMP280;65462;52.148;7.940;2023-02-28T05:50:03;102264.16;;;-1.86
76583;BMP280;65462;52.148;7.940;2023-02-28T05:52:28;102279.63;;;-1.78
76583;BMP280;65462;52.148;7.940;2023-02-28T05:57:30;102279.41;;;-1.77
76583;BMP280;65462;52.148;7.940;2023-02-28T06:02:30;102261.25;;;-2.04
76583;BMP280;65462;52.148;7.940;2023-02-28T06:04:56;102241.63;;;-2.20
76583;BMP280;65462;52.148;7.940;2023-02-28T06:07:21;102271.22;;;-2.01
76583;BMP280;65462;52.148;7.940;2023-02-28T06:09:47;102291.19;;;-1.95
76583;BMP280;65462;52.148;7.940;2023-02-28T06:12:12;102284.78;;;-1.99
76583;BMP280;65462;52.148;7.940;2023-02-28T06:14:38;102272.47;;;-1.97
76583;BMP280;65462;52.148;7.940;2023-02-28T06:17:03;102275.97;;;-2.05
76583;BMP280;65462;52.148;7.940;2023-02-28T06:19:28;102277.75;;;-2.06
76583;BMP280;65462;52.148;7.940;2023-02-28T06:21:55;102273.34;;;-2.12
76583;BMP280;65462;52.148;7.940;2023-02-28T06:24:23;102282.88;;;-2.12
76583;BMP280;65462;52.148;7.940;2023-02-28T06:26:48;102284.06;;;-2.15
76583;BMP280;65462;52.148;7.940;2023-02-28T06:29:14;102276.31;;;-2.15
76583;BMP280;65462;52.148;7.940;2023-02-28T06:31:46;102277.09;;;-2.14
76583;BMP280;65462;52.148;7.940;2023-02-28T06:34:13;102280.66;;;-2.15
76583;BMP280;65462;52.148;7.940;2023-02-28T06:36:39;102275.44;;;-2.22
76583;BMP280;65462;52.148;7.940;2023-02-28T06:39:05;102275.63;;;-2.23
76583;BMP280;65462;52.148;7.940;2023-02-28T06:41:31;102277.31;;;-2.30
76583;BMP280;65462;52.148;7.940;2023-02-28T06:43:56;102294.13;;;-2.26
76583;BMP280;65462;52.148;7.940;2023-02-28T06:46:22;102286.97;;;-2.24
76583;BMP280;65462;52.148;7.940;2023-02-28T06:48:48;102288.00;;;-2.19
76583;BMP280;65462;52.148;7.940;2023-02-28T06:51:17;102296.13;;;-2.22
76583;BMP280;65462;52.148;7.940;2023-02-28T06:53:43;102298.72;;;-2.22
76583;BMP280;65462;52.148;7.940;2023-02-28T06:56:11;102293.75;;;-2.23
76583;BMP280;65462;52.148;7.940;2023-02-28T06:58:37;102291.72;;;-2.28
76583;BMP280;65462;52.148;7.940;2023-02-28T07:01:05;102298.19;;;-2.32
76583;BMP280;65462;52.148;7.940;2023-02-28T07:03:31;102314.34;;;-2.30
76583;BMP280;65462;52.148;7.940;2023-02-28T07:05:56;102302.66;;;-2.26
76583;BMP280;65462;52.148;7.940;2023-02-28T07:08:22;102304.28;;;-2.25
76583;BMP280;65462;52.148;7.940;2023-02-28T07:10:51;102300.06;;;-2.26
76583;BMP280;65462;52.148;7.940;2023-02-28T07:13:17;102306.50;;;-2.22
76583;BMP280;65462;52.148;7.940;2023-02-28T07:15:42;102308.97;;;-2.14
76583;BMP280;65462;52.148;7.940;2023-02-28T07:18:07;102319.19;;;-2.06
76583;BMP280;65462;52.148;7.940;2023-02-28T07:20:33;102307.84;;;-2.04
76583;BMP280;65462;52.148;7.940;2023-02-28T07:22:58;102311.03;;;-2.02
76583;BMP280;65462;52.148;7.940;2023-02-28T07:25:25;102306.28;;;-1.99
76583;BMP280;65462;52.148;7.940;2023-02-28T07:27:51;102321.81;;;-1.99
76583;BMP280;65462;52.148;7.940;2023-02-28T07:30:16;102312.34;;;-1.92
76583;BMP280;65462;52.148;7.940;2023-02-28T07:32:42;102310.16;;;-1.88
76583;BMP280;65462;52.148;7.940;2023-02-28T07:35:07;102322.41;;;-1.82
76583;BMP280;65462;52.148;7.940;2023-02-28T07:37:33;102314.25;;;-1.79
76583;BMP280;65462;52.148;7.940;2023-02-28T07:40:06;102317.69;;;-1.72
76583;BMP280;65462;52.148;7.940;2023-02-28T07:42:37;102319.72;;;-1.68
76583;BMP280;65462;52.148;7.940;2023-02-28T07:45:04;102319.75;;;-1.61
76583;BMP280;65462;52.148;7.940;2023-02-28T07:47:30;102338.75;;;-1.54
76583;BMP280;65462;52.148;7.940;2023-02-28T07:49:55;102321.47;;;-1.47
76583;BMP280;65462;52.148;7.940;2023-02-28T07:52:21;102313.31;;;-1.44
76583;BMP280;65462;52.148;7.940;2023-02-28T07:54:48;102320.41;;;-1.31
76583;BMP280;65462;52.148;7.940;2023-02-28T07:57:14;102318.84;;;-1.19
76583;BMP280;65462;52.148;7.940;2023-02-28T07:59:39;102312.56;;;-1.10
76583;BMP280;65462;52.148;7.940;2023-02-28T08:02:04;102327.34;;;-1.04
76583;BMP280;65462;52.148;7.940;2023-02-28T08:04:32;102323.00;;;-0.97
76583;BMP280;65462;52.148;7.940;2023-02-28T08:06:57;102322.00;;;-0.89
76583;BMP280;65462;52.148;7.940;2023-02-28T08:09:23;102322.66;;;-0.81
76583;BMP280;65462;52.148;7.940;2023-02-28T08:11:48;102324.25;;;-0.73
76583;BMP280;65462;52.148;7.940;2023-02-28T08:14:14;102321.53;;;-0.65
76583;BMP280;65462;52.148;7.940;2023-02-28T08:16:39;102331.31;;;-0.54
76583;BMP280;65462;52.148;7.940;2023-02-28T08:19:04;102335.94;;;-0.43
76583;BMP280;65462;52.148;7.940;2023-02-28T08:21:29;102327.97;;;-0.35
76583;BMP280;65462;52.148;7.940;2023-02-28T08:23:55;102329.63;;;-0.27
76583;BMP280;65462;52.148;7.940;2023-02-28T08:26:22;102329.63;;;-0.21
76583;BMP280;65462;52.148;7.940;2023-02-28T08:28:47;102327.63;;;-0.12
76583;BMP280;65462;52.148;7.940;2023-02-28T08:31:14;102340.84;;;-0.01
76583;BMP280;65462;52.148;7.940;2023-02-28T08:33:41;102326.47;;;0.10
76583;BMP280;65462;52.148;7.940;2023-02-28T08:36:07;102331.25;;;0.20
76583;BMP280;65462;52.148;7.940;2023-02-28T08:38:32;102328.47;;;0.28
76583;BMP280;65462;52.148;7.940;2023-02-28T08:40:59;102332.84;;;0.34
76583;BMP280;65462;52.148;7.940;2023-02-28T08:43:25;102330.81;;;0.42
76583;BMP280;65462;52.148;7.940;2023-02-28T08:45:52;102329.63;;;0.51
76583;BMP280;65462;52.148;7.940;2023-02-28T08:48:17;102332.41;;;0.63
76583;BMP280;65462;52.148;7.940;2023-02-28T08:50:42;102336.78;;;0.69
76583;BMP280;65462;52.148;7.940;2023-02-28T08:53:07;102334.38;;;0.81
76583;BMP280;65462;52.148;7.940;2023-02-28T08:55:33;102333.16;;;0.90
76583;BMP280;65462;52.148;7.940;2023-02-28T08:57:58;102333.94;;;0.97
76583;BMP280;65462;52.148;7.940;2023-02-28T09:00:23;102341.09;;;1.01
76583;BMP280;65462;52.148;7.940;2023-02-28T09:02:49;102334.66;;;1.11
76583;BMP280;65462;52.148;7.940;2023-02-28T09:05:14;102336.03;;;1.20
76583;BMP280;65462;52.148;7.940;2023-02-28T09:07:39;102338.03;;;1.24
76583;BMP280;65462;52.148;7.940;2023-02-28T09:10:05;102340.97;;;1.34
76583;BMP280;65462;52.148;7.940;2023-02-28T09:12:33;102341.69;;;1.48
76583;BMP280;65462;52.148;7.940;2023-02-28T09:14:59;102338.41;;;1.59
76583;BMP280;65462;52.148;7.940;2023-02-28T09:17:25;102338.34;;;1.72
76583;BMP280;65462;52.148;7.940;2023-02-28T09:19:50;102334.28;;;1.83
76583;BMP280;65462;52.148;7.940;2023-02-28T09:22:15;102339.75;;;1.99
76583;BMP280;65462;52.148;7.940;2023-02-28T09:24:41;102340.28;;;2.08
76583;BMP280;65462;52.148;7.940;2023-02-28T09:27:06;102336.44;;;2.10
76583;BMP280;65462;52.148;7.940;2023-02-28T09:29:33;102342.63;;;2.16
76583;BMP280;65462;52.148;7.940;2023-02-28T09:31:59;102336.16;;;2.25
76583;BMP280;65462;52.148;7.940;2023-02-28T09:34:26;102334.91;;;2.28
76583;BMP280;65462;52.148;7.940;2023-02-28T09:36:52;102339.41;;;2.39
76583;BMP280;65462;52.148;7.940;2023-02-28T09:39:20;102334.06;;;2.52
76583;BMP280;65462;52.148;7.940;2023-02-28T09:41:48;102336.03;;;2.56
76583;BMP280;65462;52.148;7.940;2023-02-28T09:44:31;102339.09;;;2.65
76583;BMP280;65462;52.148;7.940;2023-02-28T09:47:10;102326.97;;;2.77
76583;BMP280;65462;52.148;7.940;2023-02-28T09:49:40;102338.91;;;2.85
76583;BMP280;65462;52.148;7.940;2023-02-28T09:52:28;102336.66;;;2.88
76583;BMP280;65462;52.148;7.940;2023-02-28T09:54:54;102336.22;;;2.91
76583;BMP280;65462;52.148;7.940;2023-02-28T09:57:33;102331.72;;;2.98
76583;BMP280;65462;52.148;7.940;2023-02-28T10:05:53;102341.06;;;3.06
76583;BMP280;65462;52.148;7.940;2023-02-28T10:09:01;102343.16;;;3.15
76583;BMP280;65462;52.148;7.940;2023-02-28T10:11:28;102343.72;;;3.17
76583;BMP280;65462;52.148;7.940;2023-02-28T10:14:00;102340.22;;;3.23
76583;BMP280;65462;52.148;7.940;2023-02-28T10:19:23;102330.56;;;3.42
76583;BMP280;65462;52.148;7.940;2023-02-28T10:21:56;102330.56;;;3.54
76583;BMP280;65462;52.148;7.940;2023-02-28T10:24:29;102337.84;;;3.63
76583;BMP280;65462;52.148;7.940;2023-02-28T10:26:59;102340.25;;;3.65
76583;BMP280;65462;52.148;7.940;2023-02-28T10:29:27;102339.81;;;3.68
76583;BMP280;65462;52.148;7.940;2023-02-28T10:31:52;102336.03;;;3.75
76583;BMP280;65462;52.148;7.940;2023-02-28T10:34:18;102334.13;;;3.82
76583;BMP280;65462;52.148;7.940;2023-02-28T10:36:44;102339.72;;;3.86
76583;BMP280;65462;52.148;7.940;2023-02-28T10:39:42;102331.19;;;4.02
76583;BMP280;65462;52.148;7.940;2023-02-28T10:42:26;102340.06;;;4.24
76583;BMP280;65462;52.148;7.940;2023-02-28T10:45:13;102343.13;;;4.33
76583;BMP280;65462;52.148;7.940;2023-02-28T10:48:04;102348.91;;;4.46
76583;BMP280;65462;52.148;7.940;2023-02-28T10:50:32;102350.00;;;4.62
76583;BMP280;65462;52.148;7.940;2023-02-28T11:01:37;102339.81;;;4.49
76583;BMP280;65462;52.148;7.940;2023-02-28T11:04:02;102329.22;;;4.44
76583;BMP280;65462;52.148;7.940;2023-02-28T11:06:34;102322.66;;;4.30
76583;BMP280;65462;52.148;7.940;2023-02-28T11:09:16;102318.78;;;4.21
76583;BMP280;65462;52.148;7.940;2023-02-28T11:11:45;102325.38;;;4.23
76583;BMP280;65462;52.148;7.940;2023-02-28T11:16:49;102315.81;;;4.52
76583;BMP280;65462;52.148;7.940;2023-02-28T11:19:20;102312.81;;;4.60
76583;BMP280;65462;52.148;7.940;2023-02-28T11:21:59;102302.56;;;4.70
76583;BMP280;65462;52.148;7.940;2023-02-28T11:24:42;102311.72;;;4.84
76583;BMP280;65462;52.148;7.940;2023-02-28T11:27:26;102307.59;;;4.88
76583;BMP280;65462;52.148;7.940;2023-02-28T11:29:51;102299.81;;;4.93
76583;BMP280;65462;52.148;7.940;2023-02-28T11:32:20;102316.53;;;5.04
76583;BMP280;65462;52.148;7.940;2023-02-28T11:34:53;102306.69;;;5.11
76583;BMP280;65462;52.148;7.940;2023-02-28T11:37:26;102301.94;;;5.25
76583;BMP280;65462;52.148;7.940;2023-02-28T11:39:52;102298.84;;;5.28
76583;BMP280;65462;52.148;7.940;2023-02-28T11:45:15;102302.03;;;5.46
76583;BMP280;65462;52.148;7.940;2023-02-28T11:52:56;102308.78;;;5.59
76583;BMP280;65462;52.148;7.940;2023-02-28T11:55:32;102302.50;;;5.60
76583;BMP280;65462;52.148;7.940;2023-02-28T12:01:31;102292.13;;;5.65
76583;BMP280;65462;52.148;7.940;2023-02-28T12:04:14;102288.59;;;5.59
76583;BMP280;65462;52.148;7.940;2023-02-28T12:12:37;102270.56;;;5.80
76583;BMP280;65462;52.148;7.940;2023-02-28T12:28:21;102237.63;;;6.32
76583;BMP280;65462;52.148;7.940;2023-02-28T12:30:58;102253.59;;;6.52
76583;BMP280;65462;52.148;7.940;2023-02-28T12:33:30;102252.34;;;6.60
76583;BMP280;65462;52.148;7.940;2023-02-28T12:35:59;102247.41;;;6.63
76583;BMP280;65462;52.148;7.940;2023-02-28T12:38:39;102243.84;;;6.74
76583;BMP280;65462;52.148;7.940;2023-02-28T12:41:14;102238.19;;;6.87
76583;BMP280;65462;52.148;7.940;2023-02-28T12:43:45;102237.75;;;7.01
76583;BMP280;65462;52.148;7.940;2023-02-28T12:46:23;102232.09;;;7.19
76583;BMP280;65462;52.148;7.940;2023-02-28T12:48:53;102226.34;;;7.22
76583;BMP280;65462;52.148;7.940;2023-02-28T12:51:22;102229.56;;;7.34
76583;BMP280;65462;52.148;7.940;2023-02-28T12:56:43;102222.94;;;7.68
76583;BMP280;65462;52.148;7.940;2023-02-28T12:59:20;102218.25;;;7.85
76583;BMP280;65462;52.148;7.940;2023-02-28T13:04:40;102210.91;;;7.97
76583;BMP280;65462;52.148;7.940;2023-02-28T13:09:55;102204.16;;;8.21
76583;BMP280;65462;52.148;7.940;2023-02-28T13:12:21;102210.75;;;8.34
76583;BMP280;65462;52.148;7.940;2023-02-28T13:14:48;102212.09;;;8.47
76583;BMP280;65462;52.148;7.940;2023-02-28T13:17:20;102211.56;;;8.50
76583;BMP280;65462;52.148;7.940;2023-02-28T13:22:20;102202.06;;;8.44
76583;BMP280;65462;52.148;7.940;2023-02-28T13:25:01;102207.09;;;8.55
76583;BMP280;65462;52.148;7.940;2023-02-28T13:27:38;102207.88;;;8.51
76583;BMP280;65462;52.148;7.940;2023-02-28T13:33:29;102207.59;;;8.47
76583;BMP280;65462;52.148;7.940;2023-02-28T13:44:02;102206.31;;;8.45
76583;BMP280;65462;52.148;7.940;2023-02-28T13:46:29;102204.97;;;8.52
76583;BMP280;65462;52.148;7.940;2023-02-28T13:48:54;102205.25;;;8.76
76583;BMP280;65462;52.148;7.940;2023-02-28T13:51:44;102207.06;;;9.01
76583;BMP280;65462;52.148;7.940;2023-02-28T13:54:19;102212.03;;;9.17
76583;BMP280;65462;52.148;7.940;2023-02-28T14:07:18;102215.16;;;9.24
76583;BMP280;65462;52.148;7.940;2023-02-28T14:09:55;102203.28;;;9.27
76583;BMP280;65462;52.148;7.940;2023-02-28T14:13:00;102204.38;;;9.26
76583;BMP280;65462;52.148;7.940;2023-02-28T14:15:30;102198.31;;;9.20
76583;BMP280;65462;52.148;7.940;2023-02-28T14:18:03;102192.28;;;9.20
76583;BMP280;65462;52.148;7.940;2023-02-28T14:20:32;102189.38;;;9.16
76583;BMP280;65462;52.148;7.940;2023-02-28T14:25:45;102197.59;;;8.95
76583;BMP280;65462;52.148;7.940;2023-02-28T14:30:59;102189.44;;;8.76
76583;BMP280;65462;52.148;7.940;2023-02-28T14:36:31;102182.34;;;8.61
76583;BMP280;65462;52.148;7.940;2023-02-28T14:39:00;102181.25;;;8.57
76583;BMP280;65462;52.148;7.940;2023-02-28T14:41:32;102180.72;;;8.50
76583;BMP280;65462;52.148;7.940;2023-02-28T14:44:01;102171.78;;;8.61
76583;BMP280;65462;52.148;7.940;2023-02-28T14:46:36;102175.47;;;8.70
76583;BMP280;65462;52.148;7.940;2023-02-28T14:49:03;102173.63;;;8.81
76583;BMP280;65462;52.148;7.940;2023-02-28T14:51:29;102162.53;;;8.79
76583;BMP280;65462;52.148;7.940;2023-02-28T14:54:00;102169.91;;;8.77
76583;BMP280;65462;52.148;7.940;2023-02-28T14:56:34;102173.91;;;8.74
76583;BMP280;65462;52.148;7.940;2023-02-28T14:59:00;102166.25;;;8.63
76583;BMP280;65462;52.148;7.940;2023-02-28T15:01:26;102171.25;;;8.59
76583;BMP280;65462;52.148;7.940;2023-02-28T15:04:04;102163.09;;;8.61
76583;BMP280;65462;52.148;7.940;2023-02-28T15:06:31;102168.38;;;8.61
76583;BMP280;65462;52.148;7.940;2023-02-28T15:09:13;102170.72;;;8.62
76583;BMP280;65462;52.148;7.940;2023-02-28T15:11:39;102171.28;;;8.54
76583;BMP280;65462;52.148;7.940;2023-02-28T15:14:04;102170.72;;;8.52
76583;BMP280;65462;52.148;7.940;2023-02-28T15:16:39;102174.66;;;8.40
76583;BMP280;65462;52.148;7.940;2023-02-28T15:19:18;102175.19;;;8.27
76583;BMP280;65462;52.148;7.940;2023-02-28T15:21:48;102167.56;;;8.25
76583;BMP280;65462;52.148;7.940;2023-02-28T15:24:41;102168.31;;;8.20
76583;BMP280;65462;52.148;7.940;2023-02-28T15:27:12;102165.16;;;8.13
76583;BMP280;65462;52.148;7.940;2023-02-28T15:29:44;102169.13;;;8.16
76583;BMP280;65462;52.148;7.940;2023-02-28T15:32:30;102165.16;;;8.13
76583;BMP280;65462;52.148;7.940;2023-02-28T15:34:57;102163.31;;;8.04
76583;BMP280;65462;52.148;7.940;2023-02-28T15:40:29;102184.88;;;8.01
76583;BMP280;65462;52.148;7.940;2023-02-28T15:45:47;102180.38;;;7.91
76583;BMP280;65462;52.148;7.940;2023-02-28T15:48:23;102175.91;;;7.87
76583;BMP280;65462;52.148;7.940;2023-02-28T15:51:12;102179.06;;;7.84
76583;BMP280;65462;52.148;7.940;2023-02-28T15:54:00;102183.75;;;7.77
76583;BMP280;65462;52.148;7.940;2023-02-28T15:56:28;102182.38;;;7.64
76583;BMP280;65462;52.148;7.940;2023-02-28T15:58:59;102182.63;;;7.57
76583;BMP280;65462;52.148;7.940;2023-02-28T16:01:27;102189.16;;;7.50
76583;BMP280;65462;52.148;7.940;2023-02-28T16:04:01;102197.56;;;7.47
76583;BMP280;65462;52.148;7.940;2023-02-28T16:06:38;102194.59;;;7.33
76583;BMP280;65462;52.148;7.940;2023-02-28T16:09:06;102192.75;;;7.34
76583;BMP280;65462;52.148;7.940;2023-02-28T16:11:34;102190.38;;;7.27
76583;BMP280;65462;52.148;7.940;2023-02-28T16:14:00;102190.03;;;7.19
76583;BMP280;65462;52.148;7.940;2023-02-28T16:16:25;102193.13;;;7.11
76583;BMP280;65462;52.148;7.940;2023-02-28T16:18:51;102190.47;;;7.06
76583;BMP280;65462;52.148;7.940;2023-02-28T16:21:18;102193.03;;;6.95